Time;durP1;ratioP1;P1;durP2;ratioP2;P2;SDS_P1;SDS_P2;PMS_P1;PMS_P2;Temp;Humidity;BMP_temperature;BMP_pressure;BME280_temperature;BME280_humidity;BME280_pressure;Samples;Min_cycle;Max_cycle;Signal;HPM_P1;HPM_P2
2024/04/11 00:00:54;;;;;;;;;;;;;;;;;;5422692;26;20461;-74
2024/04/11 00:03:40;;;;;;;7.53;2.35;;;;;;;;;;5430070;26;20563;-76
2024/04/11 00:06:26;;;;;;;6.28;1.92;;;;;;;;;;5404296;26;20026;-74
2024/04/11 00:09:11;;;;;;;8.40;2.08;;;;;;;;;;5437944;26;20035;-75
2024/04/11 00:11:56;;;;;;;6.82;2.47;;;;;;;;;;5440818;26;19999;-75
2024/04/11 00:14:43;;;;;;;4.82;2.30;;;;;;;;;;5461671;26;20037;-75
2024/04/11 00:17:28;;;;;;;8.40;1.95;;;;;;;;;;5452777;26;20013;-74
2024/04/11 00:20:13;;;;;;;4.63;2.35;;;;;;;;;;5476785;26;20421;-75
2024/04/11 00:22:59;;;;;;;7.18;1.98;;;;;;;;;;5476464;26;20552;-75
2024/04/11 00:25:51;;;;;;;8.13;1.88;;;;;;;;;;5450169;26;20000;-73
2024/04/11 00:28:36;;;;;;;4.03;1.73;;;;;;;;;;5486426;26;20457;-73
2024/04/11 00:31:21;;;;;;;7.05;2.17;;;;;;;;;;5486907;25;20459;-73
2024/04/11 00:34:13;;;;;;;6.95;2.50;;;;;;;;;;5471514;26;20009;-73
2024/04/11 00:36:59;;;;;;;6.90;2.15;;;;;;;;;;5460472;26;19998;-73
2024/04/11 00:39:44;;;;;;;5.05;1.60;;;;;;;;;;5482241;26;20053;-73
2024/04/11 00:42:30;;;;;;;5.75;2.58;;;;;;;;;;5472953;25;19998;-73
2024/04/11 00:45:15;;;;;;;8.57;2.40;;;;;;;;;;5471604;26;19998;-73
2024/04/11 00:48:01;;;;;;;7.70;2.30;;;;;;;;;;5473715;26;19994;-73
2024/04/11 00:50:47;;;;;;;5.93;2.08;;;;;;;;;;5474461;26;20472;-73
2024/04/11 00:53:32;;;;;;;6.18;2.15;;;;;;;;;;5492248;26;20016;-74
2024/04/11 00:56:17;;;;;;;4.75;2.13;;;;;;;;;;5477362;26;20618;-74
2024/04/11 00:59:04;;;;;;;8.00;2.35;;;;;;;;;;5471122;26;20497;-75
2024/04/11 01:01:50;;;;;;;6.15;2.08;;;;;;;;;;5479337;26;20332;-74
2024/04/11 01:04:36;;;;;;;6.15;2.13;;;;;;;;;;5505702;26;19998;-74
2024/04/11 01:07:23;;;;;;;11.52;3.50;;;;;;;;;;5498331;25;20001;-74
2024/04/11 01:10:16;;;;;;;4.95;2.10;;;;;;;;;;5516588;25;19997;-74
2024/04/11 01:13:07;;;;;;;5.32;2.15;;;;;;;;;;5456691;25;20504;-74
2024/04/11 01:15:54;;;;;;;7.47;3.03;;;;;;;;;;5496712;25;19993;-74
2024/04/11 01:18:39;;;;;;;6.35;2.33;;;;;;;;;;5527656;25;20515;-74
2024/04/11 01:21:24;;;;;;;6.57;2.63;;;;;;;;;;5518897;25;20518;-74
2024/04/11 01:24:09;;;;;;;7.50;2.30;;;;;;;;;;5491552;25;20045;-74
2024/04/11 01:26:56;;;;;;;4.32;2.10;;;;;;;;;;5466094;26;20372;-74
2024/04/11 01:29:41;;;;;;;9.13;3.63;;;;;;;;;;5453822;26;20446;-74
2024/04/11 01:32:27;;;;;;;7.55;2.17;;;;;;;;;;5455735;26;20453;-74
2024/04/11 01:35:15;;;;;;;6.65;2.15;;;;;;;;;;5523778;25;19997;-74
2024/04/11 01:38:00;;;;;;;11.18;2.80;;;;;;;;;;5497561;26;20026;-75
2024/04/11 01:40:46;;;;;;;6.20;2.03;;;;;;;;;;5498226;25;20455;-74
2024/04/11 01:43:57;;;;;;;9.30;1.90;;;;;;;;;;5519043;25;19997;-75
2024/04/11 01:46:42;;;;;;;7.25;2.85;;;;;;;;;;5520273;25;20212;-75
2024/04/11 01:49:31;;;;;;;3.95;2.25;;;;;;;;;;5527497;25;20011;-74
2024/04/11 01:52:16;;;;;;;7.57;2.60;;;;;;;;;;5524238;25;20008;-74
2024/04/11 01:55:03;;;;;;;10.23;2.20;;;;;;;;;;5518611;25;20004;-74
2024/04/11 01:57:48;;;;;;;9.50;2.72;;;;;;;;;;5500348;26;20098;-74
2024/04/11 02:00:36;;;;;;;8.13;2.45;;;;;;;;;;5495753;25;20065;-74
2024/04/11 02:03:26;;;;;;;6.72;2.20;;;;;;;;;;5501568;25;20001;-74
2024/04/11 02:06:14;;;;;;;5.95;2.42;;;;;;;;;;5527948;25;19996;-75
2024/04/11 02:09:00;;;;;;;5.30;2.70;;;;;;;;;;5482573;26;20006;-75
2024/04/11 02:11:46;;;;;;;5.20;2.03;;;;;;;;;;5502749;25;20073;-75
2024/04/11 02:14:31;;;;;;;7.15;2.33;;;;;;;;;;5530681;25;20077;-74
2024/04/11 02:17:19;;;;;;;9.05;2.58;;;;;;;;;;5518972;25;20056;-75
2024/04/11 02:20:10;;;;;;;8.38;3.15;;;;;;;;;;5558522;25;20476;-74
2024/04/11 02:22:55;;;;;;;6.38;2.58;;;;;;;;;;5527161;25;19997;-74
2024/04/11 02:25:41;;;;;;;5.78;2.45;;;;;;;;;;5522352;25;20004;-74
2024/04/11 02:28:26;;;;;;;6.95;2.30;;;;;;;;;;5524702;25;19993;-75
2024/04/11 02:31:12;;;;;;;6.35;2.60;;;;;;;;;;5490583;25;20048;-74
2024/04/11 02:34:00;;;;;;;6.25;2.30;;;;;;;;;;5494062;26;19993;-74
2024/04/11 02:36:47;;;;;;;7.00;2.63;;;;;;;;;;5513989;25;20000;-75
2024/04/11 02:39:32;;;;;;;7.78;2.25;;;;;;;;;;5482823;26;19994;-74
2024/04/11 02:42:17;;;;;;;7.38;2.85;;;;;;;;;;5503135;26;19997;-74
2024/04/11 02:45:09;;;;;;;3.95;2.03;;;;;;;;;;5493205;25;20001;-74
2024/04/11 02:47:55;;;;;;;6.68;2.75;;;;;;;;;;5504581;25;20071;-74
2024/04/11 02:50:41;;;;;;;6.07;1.95;;;;;;;;;;5521276;25;20029;-75
2024/04/11 02:53:27;;;;;;;6.22;2.30;;;;;;;;;;5493648;26;20001;-75
2024/04/11 02:56:12;;;;;;;8.65;2.75;;;;;;;;;;5481554;26;19998;-74
2024/04/11 02:58:58;;;;;;;6.50;2.65;;;;;;;;;;5503981;25;20038;-74
2024/04/11 03:01:43;;;;;;;6.10;3.45;;;;;;;;;;5529690;25;20321;-74
2024/04/11 03:04:28;;;;;;;9.95;3.30;;;;;;;;;;5476039;25;20467;-74
2024/04/11 03:07:14;;;;;;;10.25;3.17;;;;;;;;;;5512676;25;20467;-74
2024/04/11 03:09:59;;;;;;;8.90;3.30;;;;;;;;;;5520180;25;20005;-74
2024/04/11 03:12:44;;;;;;;4.40;2.35;;;;;;;;;;5525397;25;20001;-74
2024/04/11 03:15:30;;;;;;;7.85;2.92;;;;;;;;;;5525890;25;20001;-75
2024/04/11 03:18:17;;;;;;;6.35;2.38;;;;;;;;;;5509731;25;20004;-74
2024/04/11 03:21:02;;;;;;;5.07;2.55;;;;;;;;;;5488011;26;20013;-74
2024/04/11 03:23:47;;;;;;;6.80;2.50;;;;;;;;;;5493994;25;20016;-75
2024/04/11 03:26:32;;;;;;;6.47;2.63;;;;;;;;;;5482206;26;20009;-75
2024/04/11 03:29:17;;;;;;;6.53;2.85;;;;;;;;;;5498207;25;20069;-74
2024/04/11 03:32:03;;;;;;;5.13;2.65;;;;;;;;;;5511188;25;20004;-74
2024/04/11 03:34:48;;;;;;;6.22;2.47;;;;;;;;;;5497250;25;20072;-73
2024/04/11 03:37:33;;;;;;;5.78;2.35;;;;;;;;;;5501651;25;20013;-74
2024/04/11 03:40:19;;;;;;;8.20;2.30;;;;;;;;;;5511537;25;20005;-74
2024/04/11 03:43:04;;;;;;;9.50;2.67;;;;;;;;;;5525025;25;20360;-74
2024/04/11 03:45:50;;;;;;;4.50;2.20;;;;;;;;;;5500026;26;20030;-74
2024/04/11 03:48:35;;;;;;;13.85;2.85;;;;;;;;;;5506552;25;20001;-75
2024/04/11 03:51:25;;;;;;;5.13;2.65;;;;;;;;;;5498062;26;19993;-74
2024/04/11 03:54:10;;;;;;;4.55;2.17;;;;;;;;;;5490639;25;20000;-74
2024/04/11 03:56:55;;;;;;;7.78;2.60;;;;;;;;;;5525040;25;20224;-74
2024/04/11 03:59:40;;;;;;;6.07;2.25;;;;;;;;;;5495972;25;19992;-75
2024/04/11 04:02:27;;;;;;;4.90;2.40;;;;;;;;;;5505451;25;20069;-74
2024/04/11 04:05:15;;;;;;;9.38;3.10;;;;;;;;;;5495451;25;20475;-75
2024/04/11 04:08:00;;;;;;;7.85;2.38;;;;;;;;;;5495165;25;20433;-77
2024/04/11 04:10:45;;;;;;;10.13;3.55;;;;;;;;;;5500196;25;20008;-74
2024/04/11 04:13:31;;;;;;;7.07;2.42;;;;;;;;;;5525309;25;20075;-74
2024/04/11 04:16:16;;;;;;;8.55;3.08;;;;;;;;;;5454690;26;20477;-75
2024/04/11 04:19:02;;;;;;;8.02;2.30;;;;;;;;;;5505128;25;19996;-74
2024/04/11 04:21:47;;;;;;;6.75;2.55;;;;;;;;;;5505145;26;20001;-74
2024/04/11 04:24:32;;;;;;;5.65;2.70;;;;;;;;;;5490869;26;19997;-74
2024/04/11 04:27:17;;;;;;;5.30;2.50;;;;;;;;;;5492412;25;20304;-73
2024/04/11 04:30:09;;;;;;;8.75;2.60;;;;;;;;;;5528342;25;20012;-73
2024/04/11 04:32:54;;;;;;;8.02;2.58;;;;;;;;;;5494233;26;20008;-74
2024/04/11 04:35:40;;;;;;;4.65;2.65;;;;;;;;;;5490426;26;20002;-74
2024/04/11 04:38:26;;;;;;;10.25;3.13;;;;;;;;;;5491155;26;20454;-75
2024/04/11 04:41:14;;;;;;;5.30;2.58;;;;;;;;;;5486931;26;19997;-76
2024/04/11 04:44:00;;;;;;;8.45;2.67;;;;;;;;;;5454514;26;20333;-76
2024/04/11 04:46:46;;;;;;;7.32;3.03;;;;;;;;;;5482448;26;19997;-74
2024/04/11 04:49:31;;;;;;;7.38;2.55;;;;;;;;;;5522753;25;20000;-74
2024/04/11 04:52:18;;;;;;;8.85;2.72;;;;;;;;;;5528257;25;20012;-75
2024/04/11 04:55:04;;;;;;;5.95;2.78;;;;;;;;;;5459155;26;20009;-75
2024/04/11 04:57:49;;;;;;;5.63;2.28;;;;;;;;;;5481766;26;20061;-75
2024/04/11 05:00:35;;;;;;;7.03;2.92;;;;;;;;;;5454421;26;20006;-75
2024/04/11 05:03:20;;;;;;;5.50;2.38;;;;;;;;;;5504558;25;19997;-75
2024/04/11 05:06:07;;;;;;;8.20;3.00;;;;;;;;;;5510478;26;20739;-75
2024/04/11 05:08:56;;;;;;;7.78;2.90;;;;;;;;;;5498262;25;20469;-75
2024/04/11 05:11:44;;;;;;;6.45;3.00;;;;;;;;;;5509777;25;20000;-75
2024/04/11 05:14:29;;;;;;;5.78;2.55;;;;;;;;;;5503881;26;20074;-75
2024/04/11 05:17:15;;;;;;;6.13;2.70;;;;;;;;;;5508747;26;19997;-74
2024/04/11 05:20:03;;;;;;;5.30;2.58;;;;;;;;;;5511436;25;20068;-76
2024/04/11 05:22:49;;;;;;;9.27;3.67;;;;;;;;;;5523748;25;20104;-76
2024/04/11 05:25:34;;;;;;;11.77;3.15;;;;;;;;;;5452429;26;19999;-76
2024/04/11 05:28:19;;;;;;;7.85;3.85;;;;;;;;;;5452365;26;20009;-74
2024/04/11 05:31:05;;;;;;;8.48;3.65;;;;;;;;;;5450601;26;20031;-76
2024/04/11 05:33:53;;;;;;;6.82;3.47;;;;;;;;;;5453538;26;20010;-76
2024/04/11 05:36:41;;;;;;;7.32;2.83;;;;;;;;;;5453026;26;19995;-76
2024/04/11 05:39:26;;;;;;;10.32;3.00;;;;;;;;;;5453606;26;20452;-76
2024/04/11 05:42:12;;;;;;;7.55;2.72;;;;;;;;;;5453203;26;20025;-76
2024/04/11 05:44:57;;;;;;;7.18;2.67;;;;;;;;;;5452741;26;19998;-75
2024/04/11 05:47:43;;;;;;;6.80;3.03;;;;;;;;;;5453365;26;20001;-75
2024/04/11 05:50:28;;;;;;;6.55;2.63;;;;;;;;;;5453023;26;20344;-76
2024/04/11 05:53:14;;;;;;;10.75;3.63;;;;;;;;;;5452694;26;19998;-75
2024/04/11 05:56:00;;;;;;;7.30;3.38;;;;;;;;;;5452694;26;20001;-74
2024/04/11 05:58:49;;;;;;;8.68;3.08;;;;;;;;;;5452958;26;20049;-74
2024/04/11 06:01:36;;;;;;;9.57;3.03;;;;;;;;;;5453104;26;20453;-75
2024/04/11 06:04:25;;;;;;;11.20;4.38;;;;;;;;;;5453088;26;20125;-75
2024/04/11 06:07:10;;;;;;;7.07;3.50;;;;;;;;;;5460867;26;20002;-75
2024/04/11 06:09:58;;;;;;;7.25;3.25;;;;;;;;;;5452775;26;20004;-76
2024/04/11 06:12:43;;;;;;;8.93;3.33;;;;;;;;;;5452421;26;19998;-76
2024/04/11 06:15:29;;;;;;;12.50;3.67;;;;;;;;;;5452746;26;20002;-76
2024/04/11 06:18:15;;;;;;;8.77;3.60;;;;;;;;;;5453124;26;20075;-76
2024/04/11 06:21:00;;;;;;;13.25;4.82;;;;;;;;;;5452234;26;20082;-76
2024/04/11 06:23:46;;;;;;;10.43;5.07;;;;;;;;;;5455829;26;20009;-76
2024/04/11 06:26:31;;;;;;;10.18;4.03;;;;;;;;;;5452545;26;20011;-77
2024/04/11 06:29:22;;;;;;;14.02;4.15;;;;;;;;;;5451996;26;20488;-76
2024/04/11 06:32:07;;;;;;;8.40;4.00;;;;;;;;;;5452639;26;20223;-76
2024/04/11 06:34:53;;;;;;;10.18;4.57;;;;;;;;;;5452747;26;20074;-77
2024/04/11 06:37:44;;;;;;;12.90;5.22;;;;;;;;;;5451632;26;20007;-77
2024/04/11 06:40:30;;;;;;;13.95;4.13;;;;;;;;;;5451657;26;20002;-76
2024/04/11 06:43:16;;;;;;;10.30;3.80;;;;;;;;;;5452916;26;20002;-77
2024/04/11 06:46:02;;;;;;;11.88;4.32;;;;;;;;;;5451993;26;20002;-77
2024/04/11 06:48:57;;;;;;;15.00;5.80;;;;;;;;;;5452463;26;20013;-77
2024/04/11 06:51:42;;;;;;;7.78;3.58;;;;;;;;;;5452442;26;20042;-77
2024/04/11 06:54:29;;;;;;;10.75;4.22;;;;;;;;;;5466028;26;20010;-77
2024/04/11 06:57:15;;;;;;;12.45;4.97;;;;;;;;;;5451916;26;20009;-77
2024/04/11 07:00:00;;;;;;;9.63;3.33;;;;;;;;;;5451441;26;20002;-77
2024/04/11 07:02:48;;;;;;;11.50;3.80;;;;;;;;;;5460987;26;20358;-77
2024/04/11 07:05:36;;;;;;;11.40;3.85;;;;;;;;;;5488483;26;20012;-77
2024/04/11 07:08:29;;;;;;;13.45;3.65;;;;;;;;;;5488236;26;20239;-77
2024/04/11 07:11:23;;;;;;;14.85;5.05;;;;;;;;;;5487985;26;20001;-77
2024/04/11 07:14:15;;;;;;;11.30;3.33;;;;;;;;;;5488762;26;20005;-76
2024/04/11 07:17:01;;;;;;;12.57;3.72;;;;;;;;;;5488028;26;20035;-77
2024/04/11 07:19:46;;;;;;;8.02;2.92;;;;;;;;;;5488346;26;20001;-76
2024/04/11 07:22:33;;;;;;;8.27;3.30;;;;;;;;;;5488643;26;20002;-78
2024/04/11 07:25:18;;;;;;;9.75;3.00;;;;;;;;;;5487184;26;20009;-76
2024/04/11 07:28:06;;;;;;;13.75;3.53;;;;;;;;;;5488489;26;20128;-76
2024/04/11 07:30:52;;;;;;;8.00;3.33;;;;;;;;;;5488192;26;19997;-78
2024/04/11 07:33:38;;;;;;;17.00;4.18;;;;;;;;;;5487090;26;19998;-77
2024/04/11 07:36:25;;;;;;;9.07;3.33;;;;;;;;;;5488410;26;19998;-78
2024/04/11 07:39:13;;;;;;;11.00;3.65;;;;;;;;;;5487660;26;20089;-77
2024/04/11 07:42:18;;;;;;;12.88;4.07;;;;;;;;;;5489194;26;20463;-77
2024/04/11 07:45:05;;;;;;;13.80;3.80;;;;;;;;;;5491290;26;19997;-78
2024/04/11 07:47:54;;;;;;;12.15;4.38;;;;;;;;;;5491497;26;20046;-78
2024/04/11 07:50:44;;;;;;;11.77;3.67;;;;;;;;;;5491152;26;19998;-78
2024/04/11 07:53:31;;;;;;;11.07;3.92;;;;;;;;;;5491855;26;19997;-78
2024/04/11 07:56:20;;;;;;;9.50;3.85;;;;;;;;;;5491401;26;20001;-77
2024/04/11 07:59:06;;;;;;;13.80;4.82;;;;;;;;;;5491550;26;20349;-75
2024/04/11 08:01:51;;;;;;;9.93;4.45;;;;;;;;;;5491550;26;19998;-75
2024/04/11 08:04:36;;;;;;;14.40;5.50;;;;;;;;;;5490862;26;19993;-76
2024/04/11 08:07:22;;;;;;;9.50;4.40;;;;;;;;;;5491245;26;20001;-75
2024/04/11 08:10:08;;;;;;;14.32;4.72;;;;;;;;;;5491111;26;20010;-76
2024/04/11 08:12:54;;;;;;;10.82;3.58;;;;;;;;;;5490918;26;20002;-77
2024/04/11 08:15:40;;;;;;;11.02;4.15;;;;;;;;;;5490248;26;19997;-77
2024/04/11 08:18:28;;;;;;;7.97;3.55;;;;;;;;;;5491067;26;19998;-77
2024/04/11 08:21:13;;;;;;;8.43;2.88;;;;;;;;;;5491165;26;20073;-76
2024/04/11 08:24:00;;;;;;;6.90;2.70;;;;;;;;;;5479150;26;19998;-76
2024/04/11 08:26:45;;;;;;;7.20;2.55;;;;;;;;;;5454594;26;20001;-76
2024/04/11 08:29:30;;;;;;;7.45;2.47;;;;;;;;;;5454784;26;20451;-75
2024/04/11 08:32:15;;;;;;;10.25;2.42;;;;;;;;;;5453733;26;20016;-76
2024/04/11 08:35:01;;;;;;;4.25;2.22;;;;;;;;;;5453825;26;20006;-77
2024/04/11 08:37:51;;;;;;;7.93;2.65;;;;;;;;;;5479998;26;20006;-76
2024/04/11 08:40:39;;;;;;;8.18;2.80;;;;;;;;;;5454065;26;19998;-76
2024/04/11 08:43:27;;;;;;;9.27;3.60;;;;;;;;;;5454246;26;20044;-76
2024/04/11 08:46:12;;;;;;;8.50;2.72;;;;;;;;;;5429596;26;20006;-76
2024/04/11 08:48:58;;;;;;;8.65;2.53;;;;;;;;;;5453725;26;20332;-76
2024/04/11 08:51:44;;;;;;;10.02;3.30;;;;;;;;;;5456805;26;20044;-77
2024/04/11 08:54:29;;;;;;;8.25;2.60;;;;;;;;;;5489637;26;20150;-76
2024/04/11 08:57:14;;;;;;;9.52;3.50;;;;;;;;;;5517812;26;20058;-75
2024/04/11 08:59:59;;;;;;;9.25;3.55;;;;;;;;;;5517129;26;20467;-76
2024/04/11 09:02:45;;;;;;;11.63;3.80;;;;;;;;;;5513739;26;19997;-76
2024/04/11 09:05:31;;;;;;;10.70;3.78;;;;;;;;;;5490382;26;20001;-76
2024/04/11 09:08:19;;;;;;;9.45;3.33;;;;;;;;;;5489855;26;19998;-76
2024/04/11 09:11:05;;;;;;;11.85;3.20;;;;;;;;;;5490381;26;20458;-77
2024/04/11 09:13:50;;;;;;;10.23;3.35;;;;;;;;;;5490134;26;20482;-77
2024/04/11 09:16:35;;;;;;;10.50;3.13;;;;;;;;;;5489807;26;19993;-76
2024/04/11 09:19:22;;;;;;;13.18;4.20;;;;;;;;;;5489559;26;20001;-76
2024/04/11 09:22:12;;;;;;;9.43;2.95;;;;;;;;;;5490045;26;20326;-76
2024/04/11 09:24:58;;;;;;;7.07;3.08;;;;;;;;;;5489653;26;20500;-75
2024/04/11 09:27:50;;;;;;;14.35;3.38;;;;;;;;;;5490577;26;20116;-76
2024/04/11 09:30:39;;;;;;;9.60;3.60;;;;;;;;;;5489864;26;20054;-77
2024/04/11 09:33:24;;;;;;;7.18;3.17;;;;;;;;;;5490107;26;20300;-76
2024/04/11 09:36:10;;;;;;;9.63;3.00;;;;;;;;;;5490420;26;20527;-76
2024/04/11 09:39:05;;;;;;;6.93;2.80;;;;;;;;;;5489866;26;20538;-78
2024/04/11 09:41:56;;;;;;;7.57;2.60;;;;;;;;;;5482585;26;20002;-77
2024/04/11 09:44:46;;;;;;;11.32;3.50;;;;;;;;;;5452777;26;20028;-76
2024/04/11 09:47:32;;;;;;;7.10;2.50;;;;;;;;;;5452956;26;20026;-76
2024/04/11 09:50:23;;;;;;;5.25;2.28;;;;;;;;;;5452597;26;19998;-77
2024/04/11 09:53:13;;;;;;;7.32;2.65;;;;;;;;;;5486416;26;20419;-77
2024/04/11 09:55:59;;;;;;;9.80;2.40;;;;;;;;;;5488921;26;19993;-76
2024/04/11 09:58:45;;;;;;;6.10;2.28;;;;;;;;;;5490049;26;20078;-77
2024/04/11 10:01:31;;;;;;;5.22;2.28;;;;;;;;;;5489570;26;20005;-77
2024/04/11 10:04:24;;;;;;;4.95;2.22;;;;;;;;;;5488830;26;19993;-77
2024/04/11 10:07:12;;;;;;;9.40;2.20;;;;;;;;;;5464044;26;20012;-77
2024/04/11 10:09:59;;;;;;;6.35;2.40;;;;;;;;;;5489418;26;20376;-77
2024/04/11 10:12:48;;;;;;;6.65;2.05;;;;;;;;;;5489193;26;20009;-77
2024/04/11 10:15:37;;;;;;;7.68;2.00;;;;;;;;;;5488539;26;20000;-77
2024/04/11 10:18:31;;;;;;;4.97;2.20;;;;;;;;;;5489441;26;20001;-77
2024/04/11 10:21:24;;;;;;;4.55;2.25;;;;;;;;;;5488837;26;20006;-77
2024/04/11 10:24:17;;;;;;;10.40;2.83;;;;;;;;;;5488925;26;20012;-77
2024/04/11 10:27:09;;;;;;;9.48;2.83;;;;;;;;;;5489065;26;20013;-77
2024/04/11 10:29:56;;;;;;;8.77;2.80;;;;;;;;;;5489198;26;19994;-77
2024/04/11 10:32:46;;;;;;;4.78;2.03;;;;;;;;;;5489681;26;20001;-76
2024/04/11 10:35:33;;;;;;;3.15;1.58;;;;;;;;;;5489298;26;19998;-76
2024/04/11 10:38:27;;;;;;;6.03;2.00;;;;;;;;;;5488378;26;20001;-76
2024/04/11 10:41:16;;;;;;;5.07;1.92;;;;;;;;;;5488900;26;20023;-76
2024/04/11 10:44:02;;;;;;;6.68;2.05;;;;;;;;;;5489208;26;20001;-76
2024/04/11 10:46:47;;;;;;;5.13;2.25;;;;;;;;;;5489034;26;20011;-76
2024/04/11 10:49:41;;;;;;;4.13;1.95;;;;;;;;;;5476758;26;20043;-76
2024/04/11 10:52:29;;;;;;;5.88;1.85;;;;;;;;;;5452788;26;20082;-76
2024/04/11 10:55:28;;;;;;;5.93;1.80;;;;;;;;;;5451560;26;20073;-77
2024/04/11 10:58:13;;;;;;;6.22;1.73;;;;;;;;;;5451996;26;20002;-77
2024/04/11 11:01:07;;;;;;;6.72;2.28;;;;;;;;;;5451704;26;20001;-76
2024/04/11 11:03:57;;;;;;;9.23;2.17;;;;;;;;;;5452165;26;20298;-77
2024/04/11 11:06:51;;;;;;;6.30;1.85;;;;;;;;;;5452312;26;20337;-78
2024/04/11 11:09:42;;;;;;;5.13;2.00;;;;;;;;;;5451417;26;20038;-77
2024/04/11 11:12:27;;;;;;;5.22;2.45;;;;;;;;;;5452132;26;20002;-78
2024/04/11 11:15:13;;;;;;;3.58;1.95;;;;;;;;;;5451982;26;20013;-78
2024/04/11 11:17:59;;;;;;;5.30;1.60;;;;;;;;;;5450995;26;20067;-77
2024/04/11 11:20:44;;;;;;;8.75;2.42;;;;;;;;;;5451981;26;20021;-77
2024/04/11 11:23:34;;;;;;;5.68;1.92;;;;;;;;;;5462796;26;19998;-78
2024/04/11 11:26:22;;;;;;;5.18;1.73;;;;;;;;;;5487755;26;19997;-75
2024/04/11 11:29:09;;;;;;;;;;;;;;;;;;5489090;26;20005;-75
2024/04/11 11:32:04;;;;;;;4.43;2.03;;;;;;;;;;5487603;26;20079;-75
2024/04/11 11:34:51;;;;;;;7.20;2.00;;;;;;;;;;5488090;26;20129;-75
2024/04/11 11:37:38;;;;;;;4.38;2.03;;;;;;;;;;5487910;26;19993;-76
2024/04/11 11:40:38;;;;;;;4.03;1.80;;;;;;;;;;5488561;26;19998;-76
2024/04/11 11:43:23;;;;;;;5.70;1.80;;;;;;;;;;5488345;25;20002;-76
2024/04/11 11:46:26;;;;;;;5.10;1.98;;;;;;;;;;5451117;26;20002;-76
2024/04/11 11:49:12;;;;;;;4.28;1.95;;;;;;;;;;5451171;26;20010;-76
2024/04/11 11:52:01;;;;;;;5.63;2.03;;;;;;;;;;5450345;26;19998;-76
2024/04/11 11:54:50;;;;;;;4.72;1.92;;;;;;;;;;5495061;26;20013;-76
2024/04/11 11:57:41;;;;;;;6.22;2.13;;;;;;;;;;5450947;26;19994;-77
2024/04/11 12:00:32;;;;;;;4.57;1.92;;;;;;;;;;5451205;26;19998;-76
2024/04/11 12:03:20;;;;;;;7.80;2.10;;;;;;;;;;5450620;26;20034;-76
2024/04/11 12:06:06;;;;;;;3.53;1.70;;;;;;;;;;5451052;26;19999;-77
2024/04/11 12:08:51;;;;;;;5.38;1.90;;;;;;;;;;5465398;26;20013;-76
2024/04/11 12:11:53;;;;;;;8.07;2.33;;;;;;;;;;5475734;26;20002;-78
2024/04/11 12:14:42;;;;;;;6.80;1.85;;;;;;;;;;5450371;26;19994;-77
2024/04/11 12:17:28;;;;;;;7.70;1.80;;;;;;;;;;5451170;26;20526;-75
2024/04/11 12:20:15;;;;;;;5.43;2.03;;;;;;;;;;5450726;26;20462;-77
2024/04/11 12:23:06;;;;;;;7.13;2.25;;;;;;;;;;5453069;26;20390;-77
2024/04/11 12:25:52;;;;;;;6.35;2.33;;;;;;;;;;5486410;26;20009;-77
2024/04/11 12:28:37;;;;;;;4.75;1.60;;;;;;;;;;5488286;26;20001;-77
2024/04/11 12:31:25;;;;;;;6.88;2.10;;;;;;;;;;5491169;26;19997;-76
2024/04/11 12:34:11;;;;;;;7.53;2.00;;;;;;;;;;5491158;26;20480;-77
2024/04/11 12:36:59;;;;;;;8.50;1.98;;;;;;;;;;5490382;26;20008;-77
2024/04/11 12:39:45;;;;;;;6.50;2.50;;;;;;;;;;5490490;26;20069;-77
2024/04/11 12:42:30;;;;;;;4.03;1.60;;;;;;;;;;5490702;26;20008;-77
2024/04/11 12:45:18;;;;;;;4.63;1.83;;;;;;;;;;5490094;26;19997;-77
2024/04/11 12:48:07;;;;;;;5.30;1.75;;;;;;;;;;5490902;26;20012;-76
2024/04/11 12:50:55;;;;;;;3.08;1.75;;;;;;;;;;5490667;26;19998;-77
2024/04/11 12:53:40;;;;;;;6.18;1.80;;;;;;;;;;5478961;26;20063;-76
2024/04/11 12:56:25;;;;;;;4.85;2.00;;;;;;;;;;5428938;26;19998;-76
2024/04/11 12:59:23;;;;;;;8.23;2.22;;;;;;;;;;5454134;26;20013;-76
2024/04/11 13:02:09;;;;;;;6.88;1.80;;;;;;;;;;5454219;26;20346;-77
2024/04/11 13:04:55;;;;;;;6.00;2.05;;;;;;;;;;5453619;26;20406;-76
2024/04/11 13:07:43;;;;;;;6.57;1.77;;;;;;;;;;5453615;26;20453;-77
2024/04/11 13:10:34;;;;;;;3.72;1.70;;;;;;;;;;5454013;26;19998;-77
2024/04/11 13:13:19;;;;;;;5.97;1.80;;;;;;;;;;5453530;26;20003;-77
2024/04/11 13:16:09;;;;;;;9.73;1.73;;;;;;;;;;5454287;26;20457;-77
2024/04/11 13:18:54;;;;;;;3.03;1.40;;;;;;;;;;5453331;26;19994;-77
2024/04/11 13:21:40;;;;;;;7.80;1.67;;;;;;;;;;5453465;26;19998;-77
2024/04/11 13:24:25;;;;;;;5.20;1.75;;;;;;;;;;5466977;26;20006;-77
2024/04/11 13:27:14;;;;;;;6.60;1.98;;;;;;;;;;5452932;26;20472;-76
2024/04/11 13:30:11;;;;;;;9.15;2.08;;;;;;;;;;5453498;26;20427;-77
2024/04/11 13:32:59;;;;;;;4.78;2.00;;;;;;;;;;5473654;26;20001;-75
2024/04/11 13:35:51;;;;;;;3.97;2.13;;;;;;;;;;5453609;26;19994;-76
2024/04/11 13:38:37;;;;;;;5.00;1.83;;;;;;;;;;5453094;26;19998;-75
2024/04/11 13:44:32;;;;;;;8.38;1.90;;;;;;;;;;5453238;26;19998;-76
2024/04/11 13:47:22;;;;;;;6.75;2.10;;;;;;;;;;5452723;26;20012;-76
2024/04/11 13:50:21;;;;;;;5.63;1.73;;;;;;;;;;5453869;26;20002;-76
2024/04/11 13:53:06;;;;;;;;;;;;;;;;;;5458211;26;20051;-76
2024/04/11 13:55:53;;;;;;;8.00;2.13;;;;;;;;;;5489187;26;19931;-76
2024/04/11 13:58:39;;;;;;;3.75;1.63;;;;;;;;;;5488983;26;20001;-76
2024/04/11 14:01:28;;;;;;;7.53;2.20;;;;;;;;;;5489434;26;20008;-77
2024/04/11 14:04:16;;;;;;;7.43;2.17;;;;;;;;;;5489671;26;20674;-76
2024/04/11 14:07:03;;;;;;;4.25;1.50;;;;;;;;;;5489797;26;20218;-76
2024/04/11 14:09:51;;;;;;;7.35;2.25;;;;;;;;;;5489436;26;20073;-77
2024/04/11 14:12:37;;;;;;;4.10;1.88;;;;;;;;;;5489146;26;20001;-76
2024/04/11 14:15:23;;;;;;;7.65;2.20;;;;;;;;;;5489572;26;20012;-77
2024/04/11 14:18:17;;;;;;;4.05;1.85;;;;;;;;;;5489444;26;20008;-76
2024/04/11 14:21:18;;;;;;;6.47;1.85;;;;;;;;;;5489378;26;20012;-75
2024/04/11 14:24:15;;;;;;;8.48;2.70;;;;;;;;;;5477678;26;20425;-76
2024/04/11 14:27:06;;;;;;;7.05;1.90;;;;;;;;;;5473149;26;20002;-76
2024/04/11 14:29:53;;;;;;;4.93;1.80;;;;;;;;;;5453193;26;20383;-76
2024/04/11 14:38:48;;;;;;;5.15;1.90;;;;;;;;;;5488998;26;20352;-77
2024/04/11 14:41:35;;;;;;;5.78;2.38;;;;;;;;;;5488612;26;19997;-76
2024/04/11 14:44:21;;;;;;;6.00;1.88;;;;;;;;;;5489059;26;20002;-77
2024/04/11 14:47:06;;;;;;;5.78;1.90;;;;;;;;;;5488715;26;20009;-76
2024/04/11 14:49:59;;;;;;;5.28;1.95;;;;;;;;;;5489147;26;19993;-77
2024/04/11 14:52:58;;;;;;;5.97;2.13;;;;;;;;;;5488067;26;20002;-77
2024/04/11 14:55:45;;;;;;;4.10;2.13;;;;;;;;;;5488397;26;19997;-78
2024/04/11 14:58:31;;;;;;;5.40;2.10;;;;;;;;;;5488988;26;20551;-77
2024/04/11 15:01:16;;;;;;;3.40;2.00;;;;;;;;;;5488018;26;20619;-77
2024/04/11 15:04:05;;;;;;;3.70;1.73;;;;;;;;;;5488923;26;20013;-77
2024/04/11 15:06:51;;;;;;;4.22;1.80;;;;;;;;;;5476844;26;19993;-77
2024/04/11 15:09:50;;;;;;;5.97;2.03;;;;;;;;;;5476846;26;20022;-77
2024/04/11 15:12:41;;;;;;;;;;;;;;;;;;5452332;26;20002;-77
2024/04/11 15:15:36;;;;;;;4.00;2.00;;;;;;;;;;5452308;26;20270;-77
2024/04/11 15:18:27;;;;;;;5.75;1.88;;;;;;;;;;5451806;26;20002;-77
2024/04/11 15:21:15;;;;;;;3.80;1.58;;;;;;;;;;5451488;26;20002;-77
2024/04/11 15:24:01;;;;;;;4.13;1.65;;;;;;;;;;5469727;26;20444;-77
2024/04/11 15:26:54;;;;;;;8.27;2.80;;;;;;;;;;5487790;26;19997;-77
2024/04/11 15:29:57;;;;;;;7.15;3.05;;;;;;;;;;5487891;26;19997;-77
2024/04/11 15:32:46;;;;;;;5.53;2.17;;;;;;;;;;5488028;26;20073;-77
2024/04/11 15:35:31;;;;;;;;;;;;;;;;;;5488605;26;19997;-77
2024/04/11 15:38:18;;;;;;;4.07;1.70;;;;;;;;;;5487386;26;19931;-77
2024/04/11 15:41:07;;;;;;;5.13;2.05;;;;;;;;;;5488390;26;20002;-77
2024/04/11 15:43:54;;;;;;;5.07;2.00;;;;;;;;;;5488517;26;20005;-77
2024/04/11 15:46:39;;;;;;;8.85;2.10;;;;;;;;;;5487672;26;20002;-77
2024/04/11 15:49:26;;;;;;;3.28;1.75;;;;;;;;;;5488085;26;20001;-77
2024/04/11 15:52:11;;;;;;;5.80;1.92;;;;;;;;;;5487597;26;20550;-78
2024/04/11 15:54:56;;;;;;;6.32;1.58;;;;;;;;;;5486671;26;20523;-78
2024/04/11 15:57:44;;;;;;;4.28;2.00;;;;;;;;;;5487611;26;20457;-78
2024/04/11 16:00:39;;;;;;;4.88;1.55;;;;;;;;;;5487696;26;20332;-78
2024/04/11 16:03:24;;;;;;;4.88;1.40;;;;;;;;;;5490330;26;19997;-78
2024/04/11 16:06:09;;;;;;;2.95;1.48;;;;;;;;;;5490953;26;20009;-78
2024/04/11 16:08:58;;;;;;;7.90;2.03;;;;;;;;;;5491030;26;20302;-78
2024/04/11 16:11:44;;;;;;;5.82;2.05;;;;;;;;;;5491026;26;20444;-78
2024/04/11 16:14:31;;;;;;;8.18;2.50;;;;;;;;;;5491296;26;20507;-78
2024/04/11 16:17:17;;;;;;;8.45;2.03;;;;;;;;;;5490315;26;20039;-78
2024/04/11 16:20:04;;;;;;;4.78;1.52;;;;;;;;;;5491133;26;19998;-77
2024/04/11 16:22:51;;;;;;;5.22;2.15;;;;;;;;;;5490603;26;20013;-77
2024/04/11 16:25:39;;;;;;;2.38;1.77;;;;;;;;;;5478658;26;20009;-77
2024/04/11 16:28:28;;;;;;;5.72;2.20;;;;;;;;;;5454833;26;20009;-77
2024/04/11 16:31:25;;;;;;;5.85;2.00;;;;;;;;;;5479354;26;20454;-77
2024/04/11 16:34:10;;;;;;;4.95;2.22;;;;;;;;;;5454385;26;20014;-77
2024/04/11 16:36:56;;;;;;;7.57;3.00;;;;;;;;;;5453814;26;20017;-77
2024/04/11 16:39:49;;;;;;;5.55;2.58;;;;;;;;;;5454651;26;20445;-77
2024/04/11 16:42:34;;;;;;;5.95;2.15;;;;;;;;;;5454151;26;20424;-77
2024/04/11 16:45:26;;;;;;;3.45;1.95;;;;;;;;;;5454373;26;20030;-77
2024/04/11 16:48:13;;;;;;;7.15;2.70;;;;;;;;;;5454266;26;20078;-77
2024/04/11 16:50:59;;;;;;;6.60;2.72;;;;;;;;;;5502783;25;20029;-77
2024/04/11 16:54:11;;;;;;;7.45;2.20;;;;;;;;;;5493434;26;20006;-77